Sanlucar de Barrameda, Spain
Current Conditions -  °F | °C
As of 6:00 PM on Thursday 18 Dec 2014 (Local Time) from LERT Reporting Station
Haze Haze  
Wind Chill: 54°   Ceiling: Unl
Heat Index: 54°   Visibility: 2.5mi
Dew Point: 52°   Wind: 5mph
Humidity: 94%   Direction: 300°WNW
Pressure: 30.33"   Gusts: NA
Location:  36.78°N, 6.35°W
Report Text: LERT 181700Z 30004KT 4000 BR NSC 12/11 Q1027 NOSIG
Loading
Personal Weather Stations






























Interactive Weather Map New forecast layout! Learn more

10-Day Weather Forecast

Advertisements
Track Severe Weather on mobile